sensor_id;sensor_type;location;lat;lon;timestamp;P1;durP1;ratioP1;P2;durP2;ratioP2
69937;SDS011;57248;47.320;15.998;2023-07-08T00:01:17;8.02;;;3.03;;
69937;SDS011;57248;47.320;15.998;2023-07-08T00:03:51;6.55;;;3.35;;
69937;SDS011;57248;47.320;15.998;2023-07-08T00:06:24;6.07;;;2.67;;
69937;SDS011;57248;47.320;15.998;2023-07-08T00:09:00;7.53;;;3.20;;
69937;SDS011;57248;47.320;15.998;2023-07-08T00:11:39;7.10;;;3.00;;
69937;SDS011;57248;47.320;15.998;2023-07-08T00:14:04;6.23;;;3.13;;
69937;SDS011;57248;47.320;15.998;2023-07-08T00:16:37;7.68;;;3.38;;
69937;SDS011;57248;47.320;15.998;2023-07-08T00:19:09;7.60;;;3.42;;
69937;SDS011;57248;47.320;15.998;2023-07-08T00:21:42;7.85;;;3.38;;
69937;SDS011;57248;47.320;15.998;2023-07-08T00:24:15;8.88;;;3.33;;
69937;SDS011;57248;47.320;15.998;2023-07-08T00:26:47;8.43;;;3.20;;
69937;SDS011;57248;47.320;15.998;2023-07-08T00:29:19;11.25;;;3.38;;
69937;SDS011;57248;47.320;15.998;2023-07-08T00:31:51;7.03;;;3.33;;
69937;SDS011;57248;47.320;15.998;2023-07-08T00:34:23;8.77;;;3.40;;
69937;SDS011;57248;47.320;15.998;2023-07-08T00:36:55;7.88;;;3.13;;
69937;SDS011;57248;47.320;15.998;2023-07-08T00:39:27;8.93;;;3.33;;
69937;SDS011;57248;47.320;15.998;2023-07-08T00:42:00;7.13;;;2.95;;
69937;SDS011;57248;47.320;15.998;2023-07-08T00:44:37;7.60;;;3.80;;
69937;SDS011;57248;47.320;15.998;2023-07-08T00:47:12;8.93;;;4.20;;
69937;SDS011;57248;47.320;15.998;2023-07-08T00:49:56;13.32;;;3.58;;
69937;SDS011;57248;47.320;15.998;2023-07-08T00:52:29;7.70;;;3.37;;
69937;SDS011;57248;47.320;15.998;2023-07-08T00:55:01;7.18;;;3.33;;
69937;SDS011;57248;47.320;15.998;2023-07-08T00:57:38;8.05;;;4.10;;
69937;SDS011;57248;47.320;15.998;2023-07-08T01:00:16;9.38;;;3.35;;
69937;SDS011;57248;47.320;15.998;2023-07-08T01:02:50;6.63;;;3.47;;
69937;SDS011;57248;47.320;15.998;2023-07-08T01:05:26;8.87;;;4.30;;
69937;SDS011;57248;47.320;15.998;2023-07-08T01:08:08;7.82;;;3.80;;
69937;SDS011;57248;47.320;15.998;2023-07-08T01:10:49;7.10;;;3.58;;
69937;SDS011;57248;47.320;15.998;2023-07-08T01:13:37;8.43;;;3.35;;
69937;SDS011;57248;47.320;15.998;2023-07-08T01:16:14;6.90;;;3.90;;
69937;SDS011;57248;47.320;15.998;2023-07-08T01:18:47;7.80;;;3.57;;
69937;SDS011;57248;47.320;15.998;2023-07-08T01:21:32;6.95;;;3.30;;
69937;SDS011;57248;47.320;15.998;2023-07-08T01:24:07;7.60;;;3.38;;
69937;SDS011;57248;47.320;15.998;2023-07-08T01:26:42;9.20;;;3.85;;
69937;SDS011;57248;47.320;15.998;2023-07-08T01:29:16;10.23;;;3.95;;
69937;SDS011;57248;47.320;15.998;2023-07-08T01:31:48;8.00;;;3.13;;
69937;SDS011;57248;47.320;15.998;2023-07-08T01:34:20;7.63;;;3.60;;
69937;SDS011;57248;47.320;15.998;2023-07-08T01:36:54;8.07;;;3.65;;
69937;SDS011;57248;47.320;15.998;2023-07-08T01:39:29;9.05;;;3.83;;
69937;SDS011;57248;47.320;15.998;2023-07-08T01:42:02;8.73;;;3.65;;
69937;SDS011;57248;47.320;15.998;2023-07-08T01:44:35;10.93;;;4.00;;
69937;SDS011;57248;47.320;15.998;2023-07-08T01:47:13;8.48;;;3.35;;
69937;SDS011;57248;47.320;15.998;2023-07-08T01:49:49;8.48;;;3.70;;
69937;SDS011;57248;47.320;15.998;2023-07-08T01:52:21;8.18;;;3.75;;
69937;SDS011;57248;47.320;15.998;2023-07-08T01:54:56;8.07;;;3.40;;
69937;SDS011;57248;47.320;15.998;2023-07-08T01:57:28;9.77;;;3.70;;
69937;SDS011;57248;47.320;15.998;2023-07-08T02:00:00;8.43;;;3.40;;
69937;SDS011;57248;47.320;15.998;2023-07-08T02:02:38;7.63;;;3.65;;
69937;SDS011;57248;47.320;15.998;2023-07-08T02:05:11;7.22;;;3.50;;
69937;SDS011;57248;47.320;15.998;2023-07-08T02:07:50;9.15;;;3.17;;
69937;SDS011;57248;47.320;15.998;2023-07-08T02:10:29;8.00;;;3.83;;
69937;SDS011;57248;47.320;15.998;2023-07-08T02:13:01;7.07;;;3.35;;
69937;SDS011;57248;47.320;15.998;2023-07-08T02:15:26;7.57;;;3.60;;
69937;SDS011;57248;47.320;15.998;2023-07-08T02:17:58;7.45;;;3.55;;
69937;SDS011;57248;47.320;15.998;2023-07-08T02:20:24;7.82;;;3.35;;
69937;SDS011;57248;47.320;15.998;2023-07-08T02:22:56;8.30;;;3.60;;
69937;SDS011;57248;47.320;15.998;2023-07-08T02:25:28;9.10;;;4.13;;
69937;SDS011;57248;47.320;15.998;2023-07-08T02:28:00;7.40;;;3.78;;
69937;SDS011;57248;47.320;15.998;2023-07-08T02:30:32;9.50;;;4.00;;
69937;SDS011;57248;47.320;15.998;2023-07-08T02:33:05;8.40;;;3.80;;
69937;SDS011;57248;47.320;15.998;2023-07-08T02:35:37;7.73;;;3.70;;
69937;SDS011;57248;47.320;15.998;2023-07-08T02:38:10;9.02;;;3.60;;
69937;SDS011;57248;47.320;15.998;2023-07-08T02:40:36;8.80;;;3.65;;
69937;SDS011;57248;47.320;15.998;2023-07-08T02:43:08;8.80;;;3.90;;
69937;SDS011;57248;47.320;15.998;2023-07-08T02:45:40;7.82;;;3.85;;
69937;SDS011;57248;47.320;15.998;2023-07-08T02:48:12;8.38;;;3.65;;
69937;SDS011;57248;47.320;15.998;2023-07-08T02:50:44;8.00;;;3.83;;
69937;SDS011;57248;47.320;15.998;2023-07-08T02:53:16;7.80;;;3.70;;
69937;SDS011;57248;47.320;15.998;2023-07-08T02:55:48;9.40;;;3.90;;
69937;SDS011;57248;47.320;15.998;2023-07-08T02:58:20;7.95;;;3.75;;
69937;SDS011;57248;47.320;15.998;2023-07-08T03:00:52;6.97;;;3.53;;
69937;SDS011;57248;47.320;15.998;2023-07-08T03:03:25;7.53;;;3.80;;
69937;SDS011;57248;47.320;15.998;2023-07-08T03:05:58;8.50;;;3.42;;
69937;SDS011;57248;47.320;15.998;2023-07-08T03:08:32;7.60;;;3.30;;
69937;SDS011;57248;47.320;15.998;2023-07-08T03:11:04;8.05;;;3.33;;
69937;SDS011;57248;47.320;15.998;2023-07-08T03:13:37;12.27;;;4.00;;
69937;SDS011;57248;47.320;15.998;2023-07-08T03:16:09;7.50;;;3.80;;
69937;SDS011;57248;47.320;15.998;2023-07-08T03:18:44;9.13;;;4.10;;
69937;SDS011;57248;47.320;15.998;2023-07-08T03:21:19;9.00;;;3.47;;
69937;SDS011;57248;47.320;15.998;2023-07-08T03:23:51;8.57;;;3.63;;
69937;SDS011;57248;47.320;15.998;2023-07-08T03:26:25;8.60;;;3.70;;
69937;SDS011;57248;47.320;15.998;2023-07-08T03:28:59;9.43;;;3.70;;
69937;SDS011;57248;47.320;15.998;2023-07-08T03:31:25;6.68;;;3.63;;
69937;SDS011;57248;47.320;15.998;2023-07-08T03:33:58;7.20;;;3.23;;
69937;SDS011;57248;47.320;15.998;2023-07-08T03:36:30;6.63;;;3.40;;
69937;SDS011;57248;47.320;15.998;2023-07-08T03:39:02;10.05;;;3.47;;
69937;SDS011;57248;47.320;15.998;2023-07-08T03:41:34;8.95;;;3.70;;
69937;SDS011;57248;47.320;15.998;2023-07-08T03:44:06;8.45;;;3.85;;
69937;SDS011;57248;47.320;15.998;2023-07-08T03:46:38;8.27;;;3.87;;
69937;SDS011;57248;47.320;15.998;2023-07-08T03:49:13;6.20;;;3.10;;
69937;SDS011;57248;47.320;15.998;2023-07-08T03:51:46;9.18;;;4.00;;
69937;SDS011;57248;47.320;15.998;2023-07-08T03:54:18;8.73;;;3.70;;
69937;SDS011;57248;47.320;15.998;2023-07-08T03:56:54;7.63;;;3.53;;
69937;SDS011;57248;47.320;15.998;2023-07-08T03:59:26;6.53;;;3.60;;
69937;SDS011;57248;47.320;15.998;2023-07-08T04:01:59;8.77;;;3.83;;
69937;SDS011;57248;47.320;15.998;2023-07-08T04:04:25;8.00;;;3.47;;
69937;SDS011;57248;47.320;15.998;2023-07-08T04:06:57;7.15;;;3.65;;
69937;SDS011;57248;47.320;15.998;2023-07-08T04:09:36;8.85;;;3.90;;
69937;SDS011;57248;47.320;15.998;2023-07-08T04:12:08;9.67;;;3.30;;
69937;SDS011;57248;47.320;15.998;2023-07-08T04:14:40;7.90;;;3.45;;
69937;SDS011;57248;47.320;15.998;2023-07-08T04:17:14;7.50;;;3.60;;
69937;SDS011;57248;47.320;15.998;2023-07-08T04:19:47;8.45;;;4.10;;
69937;SDS011;57248;47.320;15.998;2023-07-08T04:22:19;8.23;;;3.55;;
69937;SDS011;57248;47.320;15.998;2023-07-08T04:24:51;8.60;;;3.83;;
69937;SDS011;57248;47.320;15.998;2023-07-08T04:27:23;6.68;;;3.53;;
69937;SDS011;57248;47.320;15.998;2023-07-08T04:29:55;7.85;;;4.28;;
69937;SDS011;57248;47.320;15.998;2023-07-08T04:32:27;8.20;;;4.07;;
69937;SDS011;57248;47.320;15.998;2023-07-08T04:34:59;6.75;;;4.10;;
69937;SDS011;57248;47.320;15.998;2023-07-08T04:37:31;7.73;;;4.13;;
69937;SDS011;57248;47.320;15.998;2023-07-08T04:40:03;7.13;;;4.00;;
69937;SDS011;57248;47.320;15.998;2023-07-08T04:42:36;7.15;;;3.88;;
69937;SDS011;57248;47.320;15.998;2023-07-08T04:45:01;9.43;;;4.33;;
69937;SDS011;57248;47.320;15.998;2023-07-08T04:47:36;6.53;;;3.90;;
69937;SDS011;57248;47.320;15.998;2023-07-08T04:50:08;7.90;;;3.80;;
69937;SDS011;57248;47.320;15.998;2023-07-08T04:52:41;6.53;;;3.70;;
69937;SDS011;57248;47.320;15.998;2023-07-08T04:55:13;8.07;;;3.80;;
69937;SDS011;57248;47.320;15.998;2023-07-08T04:57:45;6.82;;;3.72;;
69937;SDS011;57248;47.320;15.998;2023-07-08T05:00:17;6.32;;;3.50;;
69937;SDS011;57248;47.320;15.998;2023-07-08T05:02:51;6.38;;;3.58;;
69937;SDS011;57248;47.320;15.998;2023-07-08T05:05:23;6.93;;;3.88;;
69937;SDS011;57248;47.320;15.998;2023-07-08T05:07:55;7.80;;;4.00;;
69937;SDS011;57248;47.320;15.998;2023-07-08T05:10:27;7.53;;;3.70;;
69937;SDS011;57248;47.320;15.998;2023-07-08T05:13:07;7.25;;;4.15;;
69937;SDS011;57248;47.320;15.998;2023-07-08T05:15:40;8.18;;;3.90;;
69937;SDS011;57248;47.320;15.998;2023-07-08T05:18:12;6.88;;;3.30;;
69937;SDS011;57248;47.320;15.998;2023-07-08T05:20:49;7.07;;;3.80;;
69937;SDS011;57248;47.320;15.998;2023-07-08T05:23:22;8.32;;;3.88;;
69937;SDS011;57248;47.320;15.998;2023-07-08T05:25:54;9.02;;;4.05;;
69937;SDS011;57248;47.320;15.998;2023-07-08T05:28:26;8.20;;;3.72;;
69937;SDS011;57248;47.320;15.998;2023-07-08T05:30:59;8.23;;;4.20;;
69937;SDS011;57248;47.320;15.998;2023-07-08T05:33:31;7.23;;;4.17;;
69937;SDS011;57248;47.320;15.998;2023-07-08T05:36:03;7.18;;;3.80;;
69937;SDS011;57248;47.320;15.998;2023-07-08T05:38:35;9.05;;;4.00;;
69937;SDS011;57248;47.320;15.998;2023-07-08T05:41:07;8.98;;;4.28;;
69937;SDS011;57248;47.320;15.998;2023-07-08T05:43:39;8.07;;;4.35;;
69937;SDS011;57248;47.320;15.998;2023-07-08T05:46:11;6.37;;;3.80;;
69937;SDS011;57248;47.320;15.998;2023-07-08T05:48:36;6.85;;;4.00;;
69937;SDS011;57248;47.320;15.998;2023-07-08T05:51:08;7.83;;;4.10;;
69937;SDS011;57248;47.320;15.998;2023-07-08T05:53:40;7.45;;;4.32;;
69937;SDS011;57248;47.320;15.998;2023-07-08T05:56:12;8.93;;;4.97;;
69937;SDS011;57248;47.320;15.998;2023-07-08T05:58:44;6.88;;;4.55;;
69937;SDS011;57248;47.320;15.998;2023-07-08T06:01:16;6.63;;;4.38;;
69937;SDS011;57248;47.320;15.998;2023-07-08T06:03:49;7.93;;;4.80;;
69937;SDS011;57248;47.320;15.998;2023-07-08T06:06:21;8.23;;;4.25;;
69937;SDS011;57248;47.320;15.998;2023-07-08T06:09:00;7.03;;;4.18;;
69937;SDS011;57248;47.320;15.998;2023-07-08T06:11:39;7.65;;;4.55;;
69937;SDS011;57248;47.320;15.998;2023-07-08T06:14:04;7.20;;;4.50;;
69937;SDS011;57248;47.320;15.998;2023-07-08T06:16:37;7.90;;;4.50;;
69937;SDS011;57248;47.320;15.998;2023-07-08T06:19:09;7.40;;;4.47;;
69937;SDS011;57248;47.320;15.998;2023-07-08T06:21:41;7.70;;;4.78;;
69937;SDS011;57248;47.320;15.998;2023-07-08T06:24:13;7.00;;;4.33;;
69937;SDS011;57248;47.320;15.998;2023-07-08T06:26:45;7.72;;;4.53;;
69937;SDS011;57248;47.320;15.998;2023-07-08T06:29:10;7.37;;;4.80;;
69937;SDS011;57248;47.320;15.998;2023-07-08T06:31:42;6.63;;;4.63;;
69937;SDS011;57248;47.320;15.998;2023-07-08T06:34:14;6.70;;;4.70;;
69937;SDS011;57248;47.320;15.998;2023-07-08T06:36:46;10.57;;;4.65;;
69937;SDS011;57248;47.320;15.998;2023-07-08T06:39:18;10.90;;;4.80;;
69937;SDS011;57248;47.320;15.998;2023-07-08T06:41:51;11.27;;;5.73;;
69937;SDS011;57248;47.320;15.998;2023-07-08T06:44:31;9.93;;;4.70;;
69937;SDS011;57248;47.320;15.998;2023-07-08T06:47:03;7.85;;;4.75;;
69937;SDS011;57248;47.320;15.998;2023-07-08T06:49:29;6.93;;;5.03;;
69937;SDS011;57248;47.320;15.998;2023-07-08T06:52:01;7.40;;;5.07;;
69937;SDS011;57248;47.320;15.998;2023-07-08T06:54:33;6.75;;;4.55;;
69937;SDS011;57248;47.320;15.998;2023-07-08T06:57:05;6.65;;;4.72;;
69937;SDS011;57248;47.320;15.998;2023-07-08T06:59:38;6.13;;;4.65;;
69937;SDS011;57248;47.320;15.998;2023-07-08T07:02:10;6.85;;;5.50;;
69937;SDS011;57248;47.320;15.998;2023-07-08T07:04:42;6.43;;;4.87;;
69937;SDS011;57248;47.320;15.998;2023-07-08T07:07:15;8.73;;;5.78;;
69937;SDS011;57248;47.320;15.998;2023-07-08T07:09:54;6.82;;;6.13;;
69937;SDS011;57248;47.320;15.998;2023-07-08T07:12:26;7.30;;;6.57;;
69937;SDS011;57248;47.320;15.998;2023-07-08T07:15:05;7.47;;;6.65;;
69937;SDS011;57248;47.320;15.998;2023-07-08T07:17:38;7.43;;;6.63;;
69937;SDS011;57248;47.320;15.998;2023-07-08T07:20:10;8.98;;;7.15;;
69937;SDS011;57248;47.320;15.998;2023-07-08T07:22:42;7.80;;;7.00;;
69937;SDS011;57248;47.320;15.998;2023-07-08T07:25:18;7.90;;;6.93;;
69937;SDS011;57248;47.320;15.998;2023-07-08T07:27:50;7.95;;;7.15;;
69937;SDS011;57248;47.320;15.998;2023-07-08T07:30:22;8.27;;;7.43;;
69937;SDS011;57248;47.320;15.998;2023-07-08T07:32:47;86.45;;;49.28;;
69937;SDS011;57248;47.320;15.998;2023-07-08T07:35:21;8.77;;;7.97;;
69937;SDS011;57248;47.320;15.998;2023-07-08T07:37:46;8.95;;;7.38;;
69937;SDS011;57248;47.320;15.998;2023-07-08T07:40:19;8.57;;;7.85;;
69937;SDS011;57248;47.320;15.998;2023-07-08T07:42:51;8.48;;;7.70;;
69937;SDS011;57248;47.320;15.998;2023-07-08T07:45:23;9.05;;;8.15;;
69937;SDS011;57248;47.320;15.998;2023-07-08T07:47:55;9.13;;;8.23;;
69937;SDS011;57248;47.320;15.998;2023-07-08T07:50:27;9.68;;;8.68;;
69937;SDS011;57248;47.320;15.998;2023-07-08T07:52:59;9.75;;;8.77;;
69937;SDS011;57248;47.320;15.998;2023-07-08T07:55:31;9.13;;;8.32;;
69937;SDS011;57248;47.320;15.998;2023-07-08T07:58:03;8.93;;;7.75;;
69937;SDS011;57248;47.320;15.998;2023-07-08T08:00:36;9.83;;;8.93;;
69937;SDS011;57248;47.320;15.998;2023-07-08T08:03:09;8.65;;;7.95;;
69937;SDS011;57248;47.320;15.998;2023-07-08T08:05:41;9.90;;;8.35;;
69937;SDS011;57248;47.320;15.998;2023-07-08T08:08:13;8.85;;;8.02;;
69937;SDS011;57248;47.320;15.998;2023-07-08T08:10:53;10.07;;;9.07;;
69937;SDS011;57248;47.320;15.998;2023-07-08T08:13:26;10.57;;;9.57;;
69937;SDS011;57248;47.320;15.998;2023-07-08T08:15:58;10.18;;;9.27;;
69937;SDS011;57248;47.320;15.998;2023-07-08T08:18:31;10.18;;;9.32;;
69937;SDS011;57248;47.320;15.998;2023-07-08T08:21:03;9.68;;;8.85;;
69937;SDS011;57248;47.320;15.998;2023-07-08T08:23:36;8.80;;;8.00;;
69937;SDS011;57248;47.320;15.998;2023-07-08T08:26:08;8.60;;;7.80;;
69937;SDS011;57248;47.320;15.998;2023-07-08T08:28:40;8.02;;;7.22;;
69937;SDS011;57248;47.320;15.998;2023-07-08T08:31:14;9.63;;;8.73;;
69937;SDS011;57248;47.320;15.998;2023-07-08T08:33:46;8.93;;;8.05;;
69937;SDS011;57248;47.320;15.998;2023-07-08T08:36:18;8.27;;;7.40;;
69937;SDS011;57248;47.320;15.998;2023-07-08T08:38:52;6.77;;;6.13;;
69937;SDS011;57248;47.320;15.998;2023-07-08T08:41:29;8.05;;;6.18;;
69937;SDS011;57248;47.320;15.998;2023-07-08T08:44:04;7.85;;;6.05;;
69937;SDS011;57248;47.320;15.998;2023-07-08T08:52:01;7.60;;;6.90;;
69937;SDS011;57248;47.320;15.998;2023-07-08T08:54:40;10.25;;;7.88;;
69937;SDS011;57248;47.320;15.998;2023-07-08T08:57:37;9.75;;;8.95;;
69937;SDS011;57248;47.320;15.998;2023-07-08T09:00:15;8.75;;;7.97;;
69937;SDS011;57248;47.320;15.998;2023-07-08T09:03:04;10.88;;;9.88;;
69937;SDS011;57248;47.320;15.998;2023-07-08T09:05:45;11.67;;;10.77;;
69937;SDS011;57248;47.320;15.998;2023-07-08T09:08:25;11.60;;;10.60;;
69937;SDS011;57248;47.320;15.998;2023-07-08T09:11:24;11.60;;;10.68;;
69937;SDS011;57248;47.320;15.998;2023-07-08T09:14:06;12.00;;;11.07;;
69937;SDS011;57248;47.320;15.998;2023-07-08T09:20:04;10.43;;;9.63;;
69937;SDS011;57248;47.320;15.998;2023-07-08T09:25:35;10.73;;;9.80;;
69937;SDS011;57248;47.320;15.998;2023-07-08T09:28:14;10.85;;;10.05;;
69937;SDS011;57248;47.320;15.998;2023-07-08T09:30:52;12.23;;;11.23;;
69937;SDS011;57248;47.320;15.998;2023-07-08T09:33:25;13.20;;;12.13;;
69937;SDS011;57248;47.320;15.998;2023-07-08T09:35:57;12.57;;;11.65;;
69937;SDS011;57248;47.320;15.998;2023-07-08T09:38:29;13.95;;;12.95;;
69937;SDS011;57248;47.320;15.998;2023-07-08T09:41:05;13.00;;;12.10;;
69937;SDS011;57248;47.320;15.998;2023-07-08T09:43:37;12.55;;;11.50;;
69937;SDS011;57248;47.320;15.998;2023-07-08T09:46:11;11.77;;;10.87;;
69937;SDS011;57248;47.320;15.998;2023-07-08T09:48:45;13.52;;;12.60;;
69937;SDS011;57248;47.320;15.998;2023-07-08T09:51:18;13.93;;;12.95;;
69937;SDS011;57248;47.320;15.998;2023-07-08T09:53:44;14.25;;;13.10;;
69937;SDS011;57248;47.320;15.998;2023-07-08T09:56:17;13.77;;;12.75;;
69937;SDS011;57248;47.320;15.998;2023-07-08T09:58:49;12.47;;;11.53;;
69937;SDS011;57248;47.320;15.998;2023-07-08T10:01:23;14.50;;;13.18;;
69937;SDS011;57248;47.320;15.998;2023-07-08T10:03:58;15.88;;;14.88;;
69937;SDS011;57248;47.320;15.998;2023-07-08T10:06:33;13.38;;;12.27;;
69937;SDS011;57248;47.320;15.998;2023-07-08T10:09:14;14.50;;;13.38;;
69937;SDS011;57248;47.320;15.998;2023-07-08T10:11:53;10.23;;;9.37;;
69937;SDS011;57248;47.320;15.998;2023-07-08T10:14:37;9.93;;;9.00;;
69937;SDS011;57248;47.320;15.998;2023-07-08T10:17:16;10.48;;;8.60;;
69937;SDS011;57248;47.320;15.998;2023-07-08T10:19:50;9.32;;;8.50;;
69937;SDS011;57248;47.320;15.998;2023-07-08T10:25:09;11.20;;;10.20;;
69937;SDS011;57248;47.320;15.998;2023-07-08T10:27:56;12.63;;;11.63;;
69937;SDS011;57248;47.320;15.998;2023-07-08T10:30:38;14.32;;;13.23;;
69937;SDS011;57248;47.320;15.998;2023-07-08T10:36:15;13.80;;;12.90;;
69937;SDS011;57248;47.320;15.998;2023-07-08T10:38:53;11.77;;;10.67;;
69937;SDS011;57248;47.320;15.998;2023-07-08T10:42:06;10.63;;;9.82;;
69937;SDS011;57248;47.320;15.998;2023-07-08T10:48:06;10.90;;;10.00;;
69937;SDS011;57248;47.320;15.998;2023-07-08T10:56:15;9.68;;;8.77;;
69937;SDS011;57248;47.320;15.998;2023-07-08T11:01:57;9.00;;;8.30;;
69937;SDS011;57248;47.320;15.998;2023-07-08T11:08:00;6.43;;;5.43;;
69937;SDS011;57248;47.320;15.998;2023-07-08T11:10:49;8.27;;;6.70;;
69937;SDS011;57248;47.320;15.998;2023-07-08T11:13:28;7.47;;;6.65;;
69937;SDS011;57248;47.320;15.998;2023-07-08T11:16:14;9.77;;;8.98;;
69937;SDS011;57248;47.320;15.998;2023-07-08T11:24:22;9.30;;;8.35;;
69937;SDS011;57248;47.320;15.998;2023-07-08T11:27:23;9.93;;;8.10;;
69937;SDS011;57248;47.320;15.998;2023-07-08T11:32:33;10.40;;;9.55;;
69937;SDS011;57248;47.320;15.998;2023-07-08T11:35:18;10.30;;;9.40;;
69937;SDS011;57248;47.320;15.998;2023-07-08T11:37:53;10.63;;;9.77;;
69937;SDS011;57248;47.320;15.998;2023-07-08T11:40:26;11.65;;;10.75;;
69937;SDS011;57248;47.320;15.998;2023-07-08T11:42:53;14.07;;;13.07;;
69937;SDS011;57248;47.320;15.998;2023-07-08T11:45:33;13.18;;;12.18;;
69937;SDS011;57248;47.320;15.998;2023-07-08T11:48:15;13.63;;;12.55;;
69937;SDS011;57248;47.320;15.998;2023-07-08T11:50:53;12.02;;;10.95;;
69937;SDS011;57248;47.320;15.998;2023-07-08T11:56:18;7.88;;;7.07;;
69937;SDS011;57248;47.320;15.998;2023-07-08T11:59:04;12.27;;;11.18;;
69937;SDS011;57248;47.320;15.998;2023-07-08T12:04:26;10.75;;;9.80;;
69937;SDS011;57248;47.320;15.998;2023-07-08T12:08:01;11.47;;;10.57;;
69937;SDS011;57248;47.320;15.998;2023-07-08T12:10:18;10.88;;;10.07;;
69937;SDS011;57248;47.320;15.998;2023-07-08T12:12:56;11.85;;;10.75;;
69937;SDS011;57248;47.320;15.998;2023-07-08T12:15:36;12.52;;;11.57;;
69937;SDS011;57248;47.320;15.998;2023-07-08T12:18:11;13.60;;;12.50;;
69937;SDS011;57248;47.320;15.998;2023-07-08T12:20:49;13.60;;;12.50;;
69937;SDS011;57248;47.320;15.998;2023-07-08T12:23:26;13.13;;;12.07;;
69937;SDS011;57248;47.320;15.998;2023-07-08T12:25:59;13.35;;;12.35;;
69937;SDS011;57248;47.320;15.998;2023-07-08T12:28:31;11.95;;;11.05;;
69937;SDS011;57248;47.320;15.998;2023-07-08T12:31:07;9.10;;;8.30;;
69937;SDS011;57248;47.320;15.998;2023-07-08T12:33:49;7.20;;;6.50;;
69937;SDS011;57248;47.320;15.998;2023-07-08T12:36:23;7.05;;;6.35;;
69937;SDS011;57248;47.320;15.998;2023-07-08T12:38:59;9.75;;;8.95;;
69937;SDS011;57248;47.320;15.998;2023-07-08T12:41:33;11.32;;;10.43;;
69937;SDS011;57248;47.320;15.998;2023-07-08T12:44:08;13.27;;;12.07;;
69937;SDS011;57248;47.320;15.998;2023-07-08T12:46:52;12.67;;;11.77;;
69937;SDS011;57248;47.320;15.998;2023-07-08T12:49:27;12.43;;;11.40;;
69937;SDS011;57248;47.320;15.998;2023-07-08T12:52:00;11.82;;;10.93;;
69937;SDS011;57248;47.320;15.998;2023-07-08T12:54:32;11.73;;;10.82;;
69937;SDS011;57248;47.320;15.998;2023-07-08T12:57:07;12.45;;;11.43;;
69937;SDS011;57248;47.320;15.998;2023-07-08T12:59:40;12.20;;;11.30;;
69937;SDS011;57248;47.320;15.998;2023-07-08T13:02:14;11.30;;;10.40;;
69937;SDS011;57248;47.320;15.998;2023-07-08T13:04:49;10.95;;;10.10;;
69937;SDS011;57248;47.320;15.998;2023-07-08T13:10:15;13.52;;;9.15;;
69937;SDS011;57248;47.320;15.998;2023-07-08T13:13:00;10.27;;;9.30;;
69937;SDS011;57248;47.320;15.998;2023-07-08T13:15:38;10.00;;;9.13;;
69937;SDS011;57248;47.320;15.998;2023-07-08T13:18:27;10.48;;;9.57;;
69937;SDS011;57248;47.320;15.998;2023-07-08T13:21:03;9.13;;;8.23;;
69937;SDS011;57248;47.320;15.998;2023-07-08T13:23:37;8.18;;;7.47;;
69937;SDS011;57248;47.320;15.998;2023-07-08T13:26:14;7.87;;;7.07;;
69937;SDS011;57248;47.320;15.998;2023-07-08T13:28:49;8.63;;;7.00;;
69937;SDS011;57248;47.320;15.998;2023-07-08T13:31:22;8.00;;;7.30;;
69937;SDS011;57248;47.320;15.998;2023-07-08T13:33:54;13.15;;;10.70;;
69937;SDS011;57248;47.320;15.998;2023-07-08T13:36:31;10.30;;;9.40;;
69937;SDS011;57248;47.320;15.998;2023-07-08T13:39:06;9.80;;;8.70;;
69937;SDS011;57248;47.320;15.998;2023-07-08T13:41:43;10.00;;;8.80;;
69937;SDS011;57248;47.320;15.998;2023-07-08T13:44:16;9.98;;;9.13;;
69937;SDS011;57248;47.320;15.998;2023-07-08T13:46:52;9.85;;;8.90;;
69937;SDS011;57248;47.320;15.998;2023-07-08T13:49:27;10.55;;;9.65;;
69937;SDS011;57248;47.320;15.998;2023-07-08T13:52:06;8.10;;;7.40;;
69937;SDS011;57248;47.320;15.998;2023-07-08T13:54:48;7.57;;;6.72;;
69937;SDS011;57248;47.320;15.998;2023-07-08T13:57:29;8.07;;;7.28;;
69937;SDS011;57248;47.320;15.998;2023-07-08T14:00:19;7.80;;;7.00;;
69937;SDS011;57248;47.320;15.998;2023-07-08T14:02:51;7.60;;;6.90;;
69937;SDS011;57248;47.320;15.998;2023-07-08T14:05:31;6.90;;;6.20;;
69937;SDS011;57248;47.320;15.998;2023-07-08T14:08:09;7.00;;;6.07;;
69937;SDS011;57248;47.320;15.998;2023-07-08T14:10:51;8.48;;;7.68;;
69937;SDS011;57248;47.320;15.998;2023-07-08T14:13:23;9.07;;;7.95;;
69937;SDS011;57248;47.320;15.998;2023-07-08T14:16:02;8.88;;;8.02;;
69937;SDS011;57248;47.320;15.998;2023-07-08T14:18:36;7.87;;;7.17;;
69937;SDS011;57248;47.320;15.998;2023-07-08T14:21:08;8.27;;;6.75;;
69937;SDS011;57248;47.320;15.998;2023-07-08T14:23:41;8.98;;;8.18;;
69937;SDS011;57248;47.320;15.998;2023-07-08T14:26:13;10.35;;;9.27;;
69937;SDS011;57248;47.320;15.998;2023-07-08T14:28:46;9.63;;;8.60;;
69937;SDS011;57248;47.320;15.998;2023-07-08T14:31:20;8.93;;;8.00;;
69937;SDS011;57248;47.320;15.998;2023-07-08T14:34:00;8.85;;;7.95;;
69937;SDS011;57248;47.320;15.998;2023-07-08T14:36:35;9.00;;;8.18;;
69937;SDS011;57248;47.320;15.998;2023-07-08T14:39:09;11.35;;;7.78;;
69937;SDS011;57248;47.320;15.998;2023-07-08T14:41:43;8.32;;;7.53;;
69937;SDS011;57248;47.320;15.998;2023-07-08T14:46:52;9.23;;;7.43;;
69937;SDS011;57248;47.320;15.998;2023-07-08T14:49:20;8.93;;;8.02;;
69937;SDS011;57248;47.320;15.998;2023-07-08T14:51:53;9.05;;;8.20;;
69937;SDS011;57248;47.320;15.998;2023-07-08T14:54:25;8.93;;;8.13;;
69937;SDS011;57248;47.320;15.998;2023-07-08T14:56:58;8.57;;;7.73;;
69937;SDS011;57248;47.320;15.998;2023-07-08T14:59:32;8.88;;;6.93;;
69937;SDS011;57248;47.320;15.998;2023-07-08T15:02:38;13.48;;;11.15;;
69937;SDS011;57248;47.320;15.998;2023-07-08T15:05:17;9.07;;;7.97;;
69937;SDS011;57248;47.320;15.998;2023-07-08T15:07:52;8.15;;;7.35;;
69937;SDS011;57248;47.320;15.998;2023-07-08T15:10:32;8.77;;;7.50;;
69937;SDS011;57248;47.320;15.998;2023-07-08T15:13:08;8.00;;;6.75;;
69937;SDS011;57248;47.320;15.998;2023-07-08T15:15:49;8.25;;;7.22;;
69937;SDS011;57248;47.320;15.998;2023-07-08T15:18:21;8.68;;;6.40;;
69937;SDS011;57248;47.320;15.998;2023-07-08T15:20:53;8.57;;;6.72;;
69937;SDS011;57248;47.320;15.998;2023-07-08T15:23:25;8.23;;;6.60;;
69937;SDS011;57248;47.320;15.998;2023-07-08T15:25:58;7.60;;;6.40;;
69937;SDS011;57248;47.320;15.998;2023-07-08T15:31:12;7.30;;;6.40;;
69937;SDS011;57248;47.320;15.998;2023-07-08T15:33:46;7.47;;;6.78;;
69937;SDS011;57248;47.320;15.998;2023-07-08T15:36:18;7.00;;;6.30;;
69937;SDS011;57248;47.320;15.998;2023-07-08T15:38:50;10.52;;;7.63;;
69937;SDS011;57248;47.320;15.998;2023-07-08T15:41:23;7.80;;;7.00;;
69937;SDS011;57248;47.320;15.998;2023-07-08T15:43:54;9.27;;;6.72;;
69937;SDS011;57248;47.320;15.998;2023-07-08T15:46:32;8.40;;;6.15;;
69937;SDS011;57248;47.320;15.998;2023-07-08T15:49:12;7.47;;;6.10;;
69937;SDS011;57248;47.320;15.998;2023-07-08T15:51:49;7.18;;;6.40;;
69937;SDS011;57248;47.320;15.998;2023-07-08T15:54:21;7.95;;;6.10;;
69937;SDS011;57248;47.320;15.998;2023-07-08T15:56:53;9.30;;;5.68;;
69937;SDS011;57248;47.320;15.998;2023-07-08T15:59:26;7.57;;;5.75;;
69937;SDS011;57248;47.320;15.998;2023-07-08T16:02:03;7.87;;;6.10;;
69937;SDS011;57248;47.320;15.998;2023-07-08T16:04:44;5.85;;;5.15;;
69937;SDS011;57248;47.320;15.998;2023-07-08T16:07:10;7.20;;;5.20;;